Airport View

Enter AWOS ICAO identifier for current METAR.

ex. KFNL

KGYL 261235Z AUTO 23003KT 10SM CLR 19/14 A3000 RMK AO2 T01890137

26 Jun 2019 12:45

Frequency: 119.625

Phone: 320-864-5830

Other Area AWOS: KHCD - KCFE - KFCM - KLJF

TAF KMSP 261122Z 2612/2718 21003KT P6SM FEW200 FM270200 16003KT P6SM SCT180 FM270600 13003KT P6SM SCT150 FM270900 12003KT P6SM BKN100